Terminal Aerodrome Forecast
Issued by NWS

Current Version | Previous Version | Text Only | Print | Product List | Glossary Off
Versions: 1 2 3 4 5 6 7 8 9 10 11 12 13 14 15 16 17 18 19 20 21 22 23 24 25 26 27 28 29 30

000
FTUS41 KPBZ 272200 AAB
TAFMGW
TAF AMD
KMGW 272205Z 2722/2818 28008KT 5SM -SHSN OVC020
      TEMPO 2722/2723 1SM -SHSN OVC010
     FM280100 30008KT P6SM -SHSN OVC030
     FM281000 28007KT P6SM OVC035=

USA.gov is the U.S. government's official web portal to all federal, state and local government web resources and services.